Time;durP1;ratioP1;P1;durP2;ratioP2;P2;SDS_P1;SDS_P2;PMS_P1;PMS_P2;Temp;Humidity;BMP_temperature;BMP_pressure;BME280_temperature;BME280_humidity;BME280_pressure;Samples;Min_cycle;Max_cycle;Signal;HPM_P1;HPM_P2
2023/06/23 00:00:31;;;;;;;27.33;8.35;;;;;;;33.28;58.74;97388.97;4926038;28;20164;-66
2023/06/23 00:03:00;;;;;;;27.90;7.93;;;;;;;33.28;58.26;97393.69;4940467;28;20062;-66
2023/06/23 00:05:30;;;;;;;32.17;8.40;;;;;;;33.25;58.93;97394.41;4954096;28;20058;-66
2023/06/23 00:08:00;;;;;;;26.40;8.00;;;;;;;33.20;58.69;97390.03;4941091;28;20062;-66
2023/06/23 00:10:30;;;;;;;20.65;7.45;;;;;;;33.21;58.83;97393.56;4959180;28;20727;-65
2023/06/23 00:12:59;;;;;;;27.15;8.02;;;;;;;33.21;58.36;97393.56;4959132;28;20090;-65
2023/06/23 00:15:28;;;;;;;23.45;8.73;;;;;;;33.21;59.22;97405.34;4930755;28;20132;-66
2023/06/23 00:18:00;;;;;;;27.40;8.35;;;;;;;33.23;58.47;97396.75;4959827;28;20055;-66
2023/06/23 00:20:29;;;;;;;25.00;7.95;;;;;;;33.23;57.98;97397.53;4957081;28;20050;-65
2023/06/23 00:22:59;;;;;;;22.08;8.30;;;;;;;33.23;58.93;97400.28;4958785;28;20133;-64
2023/06/23 00:25:29;;;;;;;26.02;8.10;;;;;;;33.17;58.64;97403.72;4941875;28;20046;-67
2023/06/23 00:28:00;;;;;;;28.83;9.40;;;;;;;33.17;58.35;97415.50;4942259;28;20050;-65
2023/06/23 00:30:29;;;;;;;29.52;9.93;;;;;;;33.17;58.86;97414.69;4942367;28;20063;-64
2023/06/23 00:32:59;;;;;;;33.95;9.40;;;;;;;33.15;58.85;97422.53;4958183;28;20061;-66
2023/06/23 00:35:30;;;;;;;30.63;10.70;;;;;;;33.17;58.16;97425.69;4940905;28;20047;-65
2023/06/23 00:38:00;;;;;;;29.17;9.88;;;;;;;33.16;58.69;97419.38;4940936;28;20792;-65
2023/06/23 00:40:29;;;;;;;28.27;10.75;;;;;;;33.17;59.25;97425.69;4940758;28;20059;-65
2023/06/23 00:42:59;;;;;;;23.98;10.27;;;;;;;33.15;59.13;97414.28;4958177;28;20054;-65
2023/06/23 00:45:28;;;;;;;28.77;10.00;;;;;;;33.17;58.91;97407.25;4958295;28;20141;-65
2023/06/23 00:47:58;;;;;;;24.38;10.65;;;;;;;33.18;59.27;97395.13;4945216;28;20058;-65
2023/06/23 00:50:29;;;;;;;29.55;10.57;;;;;;;33.21;59.72;97399.06;4929530;28;20490;-65
2023/06/23 00:53:00;;;;;;;24.67;10.30;;;;;;;33.22;59.65;97403.41;4931283;28;20383;-65
2023/06/23 00:55:40;;;;;;;24.88;10.20;;;;;;;33.22;60.58;97408.88;5019272;27;20494;-64
2023/06/23 00:58:16;;;;;;;29.08;11.15;;;;;;;33.23;61.14;97418.72;5013896;28;20046;-64
2023/06/23 01:00:46;;;;;;;23.95;10.00;;;;;;;33.21;61.35;97415.53;5048266;28;20088;-63
2023/06/23 01:03:15;;;;;;;26.10;9.88;;;;;;;33.17;62.27;97418.25;5045406;28;20049;-66
2023/06/23 01:05:48;;;;;;;33.58;11.38;;;;;;;33.20;62.69;97422.19;5042329;28;20062;-66
2023/06/23 01:08:19;;;;;;;19.38;9.32;;;;;;;33.25;62.75;97424.59;5015650;28;20056;-66
2023/06/23 01:10:51;;;;;;;32.22;10.32;;;;;;;33.28;61.37;97427.38;5048367;28;20100;-65
2023/06/23 01:13:40;;;;;;;28.05;10.35;;;;;;;33.36;62.01;97433.78;5030993;28;20045;-65
2023/06/23 01:16:32;;;;;;;26.60;10.20;;;;;;;33.40;61.99;97440.09;5047939;28;20168;-65
2023/06/23 01:19:29;;;;;;;34.17;10.53;;;;;;;33.42;62.26;97446.00;5015301;28;20042;-66
2023/06/23 01:22:20;;;;;;;27.15;9.00;;;;;;;33.46;62.54;97455.06;5016603;28;20384;-65
2023/06/23 01:25:11;;;;;;;26.67;9.52;;;;;;;33.50;62.35;97455.94;5014015;28;20073;-66
2023/06/23 01:27:59;;;;;;;32.15;11.43;;;;;;;33.53;63.03;97466.16;5047499;28;20073;-66
2023/06/23 01:30:35;;;;;;;23.23;10.25;;;;;;;33.56;64.29;97465.41;5046484;28;20104;-66
2023/06/23 01:33:21;;;;;;;30.77;10.77;;;;;;;33.56;63.54;97457.19;5048516;28;20064;-66
2023/06/23 01:36:03;;;;;;;27.73;11.10;;;;;;;33.57;64.67;97466.22;5032112;28;20791;-66
2023/06/23 01:38:47;;;;;;;26.95;11.00;;;;;;;33.57;63.82;97469.75;5048016;28;20077;-66
2023/06/23 01:41:21;;;;;;;23.38;9.93;;;;;;;33.62;63.92;97469.44;5012585;28;20758;-66
2023/06/23 01:43:55;;;;;;;30.08;10.57;;;;;;;33.70;63.99;97460.13;5031917;28;20041;-66
2023/06/23 01:46:34;;;;;;;35.95;11.35;;;;;;;33.90;63.00;97470.97;5014322;28;20049;-66
2023/06/23 01:49:11;;;;;;;38.53;10.60;;;;;;;34.11;62.26;97471.19;5031092;28;20056;-66
2023/06/23 01:51:45;;;;;;;34.22;10.45;;;;;;;34.28;61.11;97470.63;5031406;28;20144;-66
2023/06/23 01:54:16;;;;;;;33.97;10.05;;;;;;;34.59;59.53;97469.31;5040966;28;20064;-66
2023/06/23 01:56:48;;;;;;;35.22;9.20;;;;;;;34.78;58.63;97469.13;5024424;28;20143;-67
2023/06/23 01:59:19;;;;;;;29.42;10.05;;;;;;;35.11;58.60;97477.22;5014599;28;20049;-67
2023/06/23 02:01:50;;;;;;;34.43;9.93;;;;;;;35.21;56.55;97473.00;5031178;28;20054;-66
2023/06/23 02:04:20;;;;;;;28.00;8.52;;;;;;;35.23;56.16;97478.88;5030261;28;20124;-66
2023/06/23 02:06:52;;;;;;;24.40;8.77;;;;;;;35.40;54.21;97483.75;5017994;28;20186;-65
2023/06/23 02:09:28;;;;;;;25.63;8.55;;;;;;;35.59;55.54;97497.19;4999239;28;20140;-66
2023/06/23 02:11:59;;;;;;;24.90;9.05;;;;;;;35.88;55.13;97503.66;4984765;28;20105;-65
2023/06/23 02:14:31;;;;;;;26.85;9.15;;;;;;;36.05;53.42;97507.66;5017362;28;20703;-66
2023/06/23 02:17:03;;;;;;;26.02;9.00;;;;;;;35.91;53.68;97504.84;5016965;28;20054;-65
2023/06/23 02:19:34;;;;;;;38.17;9.85;;;;;;;36.05;52.13;97513.19;5017348;28;20050;-65
2023/06/23 02:22:07;;;;;;;17.77;7.40;;;;;;;36.23;53.07;97522.31;5017561;28;20081;-66
2023/06/23 02:24:40;;;;;;;33.08;8.50;;;;;;;36.16;50.94;97530.56;5020762;28;20129;-65
2023/06/23 02:27:11;;;;;;;26.30;6.88;;;;;;;36.14;51.03;97534.91;5001236;28;20112;-65
2023/06/23 02:29:42;;;;;;;26.58;8.10;;;;;;;36.25;51.77;97533.75;5000535;28;20053;-66
2023/06/23 02:32:16;;;;;;;29.67;7.40;;;;;;;36.48;50.53;97542.47;4987506;28;20046;-64
2023/06/23 02:34:46;;;;;;;38.10;8.73;;;;;;;36.36;50.30;97545.59;5003263;28;20049;-63
2023/06/23 02:37:23;;;;;;;27.58;7.05;;;;;;;36.52;50.10;97544.44;4987167;28;20045;-66
2023/06/23 02:40:00;;;;;;;29.58;7.22;;;;;;;36.97;50.34;97542.94;5003076;28;20554;-66
2023/06/23 02:42:34;;;;;;;23.33;6.30;;;;;;;36.89;49.65;97551.22;5018209;28;20056;-65
2023/06/23 02:45:08;;;;;;;22.25;6.70;;;;;;;37.20;50.16;97544.16;5016890;28;20053;-65
2023/06/23 02:47:40;;;;;;;25.60;7.88;;;;;;;37.16;48.59;97537.06;5018321;28;20128;-65
2023/06/23 02:50:12;;;;;;;28.05;7.43;;;;;;;36.92;50.60;97536.63;5017042;28;20045;-65
2023/06/23 02:52:46;;;;;;;30.58;7.57;;;;;;;36.99;49.57;97535.88;5029543;28;20050;-65
2023/06/23 02:55:20;;;;;;;28.38;6.57;;;;;;;36.93;49.98;97534.66;4982074;28;20148;-64
2023/06/23 02:57:52;;;;;;;24.00;6.85;;;;;;;37.30;48.91;97543.38;4997755;28;21964;-65
2023/06/23 03:00:23;;;;;;;30.58;7.57;;;;;;;36.93;49.28;97534.66;4990204;28;20046;-65
2023/06/23 03:02:59;;;;;;;27.23;6.43;;;;;;;37.22;49.79;97546.53;4981826;28;20053;-65
2023/06/23 03:05:29;;;;;;;22.92;7.57;;;;;;;37.58;50.50;97550.03;4990777;28;20054;-65
2023/06/23 03:08:00;;;;;;;22.67;6.82;;;;;;;37.30;49.91;97548.09;4995478;28;20330;-65
2023/06/23 03:10:30;;;;;;;24.08;7.05;;;;;;;37.38;50.13;97554.41;4948472;28;20064;-65
2023/06/23 03:13:01;;;;;;;22.33;6.68;;;;;;;37.65;51.04;97552.78;4977232;28;20140;-65
2023/06/23 03:15:31;;;;;;;31.08;8.43;;;;;;;37.66;49.12;97554.38;4980918;28;20117;-65
2023/06/23 03:18:15;;;;;;;32.17;7.82;;;;;;;37.37;49.00;97547.28;4979100;28;20065;-65
2023/06/23 03:20:52;;;;;;;21.08;6.82;;;;;;;37.72;50.92;97552.75;5009190;28;20148;-65
2023/06/23 03:23:26;;;;;;;34.72;7.45;;;;;;;37.38;49.51;97557.94;4969286;28;20054;-64
2023/06/23 03:25:57;;;;;;;32.65;7.50;;;;;;;37.35;48.77;97556.00;4996198;28;20061;-65
2023/06/23 03:28:29;;;;;;;19.75;7.07;;;;;;;37.66;49.41;97559.91;4996139;28;20054;-65
2023/06/23 03:31:07;;;;;;;32.70;7.47;;;;;;;37.21;49.80;97553.25;4996983;28;20238;-65
2023/06/23 03:33:45;;;;;;;29.90;7.80;;;;;;;37.51;49.59;97563.84;4977277;28;20529;-65
2023/06/23 03:36:21;;;;;;;34.67;7.40;;;;;;;37.51;50.38;97570.16;4995522;28;20046;-64
2023/06/23 03:38:59;;;;;;;29.70;7.35;;;;;;;37.76;49.83;97564.59;4981453;28;20049;-65
2023/06/23 03:41:30;;;;;;;27.30;8.23;;;;;;;37.78;49.28;97565.78;4978296;28;20136;-66
2023/06/23 03:44:25;;;;;;;27.27;7.78;;;;;;;37.94;48.98;97568.09;4987184;28;20730;-64
2023/06/23 03:47:03;;;;;;;26.33;8.18;;;;;;;37.82;49.41;97571.31;4976526;28;20051;-65
2023/06/23 03:49:44;;;;;;;31.08;7.30;;;;;;;37.67;50.58;97575.28;4982513;28;20058;-64
2023/06/23 03:52:17;;;;;;;23.80;7.40;;;;;;;37.51;49.15;97574.91;4981746;28;20114;-65
2023/06/23 03:54:52;;;;;;;23.80;7.85;;;;;;;37.37;49.54;97572.16;5006758;28;20050;-66
2023/06/23 03:57:27;;;;;;;29.13;8.27;;;;;;;37.42;50.30;97572.53;5013288;28;20046;-66
2023/06/23 03:59:57;;;;;;;21.05;7.10;;;;;;;37.81;50.70;97569.72;5016825;28;20080;-64
2023/06/23 04:02:31;;;;;;;31.98;7.80;;;;;;;38.01;49.15;97576.41;4998877;28;20487;-65
2023/06/23 04:05:05;;;;;;;25.00;6.82;;;;;;;37.57;48.82;97571.38;5014554;28;20054;-65
2023/06/23 04:07:36;;;;;;;28.63;7.68;;;;;;;37.75;50.28;97579.63;4999639;28;20138;-65
2023/06/23 04:10:07;;;;;;;24.38;7.50;;;;;;;37.81;49.88;97580.00;4998643;28;20049;-65
2023/06/23 04:12:38;;;;;;;24.13;7.55;;;;;;;37.83;52.16;97580.38;5014266;28;21839;-65
2023/06/23 04:15:10;;;;;;;30.50;8.20;;;;;;;37.99;49.42;97584.31;5014597;28;20471;-65
2023/06/23 04:17:42;;;;;;;23.40;7.67;;;;;;;37.96;49.06;97582.31;5030878;28;20158;-66
2023/06/23 04:20:18;;;;;;;31.98;8.98;;;;;;;38.06;49.80;97589.03;5012207;28;20050;-66
2023/06/23 04:22:50;;;;;;;30.45;7.88;;;;;;;37.94;49.23;97586.66;5015475;28;20132;-66
2023/06/23 04:25:22;;;;;;;28.02;7.53;;;;;;;37.67;50.90;97594.63;4997832;28;21676;-68
2023/06/23 04:27:55;;;;;;;27.50;8.13;;;;;;;37.79;49.73;97605.28;5014870;28;20300;-69
2023/06/23 04:30:28;;;;;;;18.55;7.80;;;;;;;38.09;50.46;97600.09;4998019;28;20069;-70
2023/06/23 04:32:59;;;;;;;27.35;7.72;;;;;;;37.82;49.05;97603.69;5002599;28;20050;-69
2023/06/23 04:35:29;;;;;;;25.05;6.78;;;;;;;38.00;49.44;97613.56;5013288;28;20082;-70
2023/06/23 04:38:02;;;;;;;17.52;7.20;;;;;;;37.96;49.31;97596.16;4998647;28;20053;-69
2023/06/23 04:40:40;;;;;;;23.67;6.95;;;;;;;38.21;49.47;97601.59;5014827;28;20053;-70
2023/06/23 04:43:13;;;;;;;26.15;7.32;;;;;;;38.35;48.42;97603.53;5014192;28;20077;-68
2023/06/23 04:45:54;;;;;;;30.33;7.28;;;;;;;38.62;50.66;97599.06;4999347;28;20397;-69
2023/06/23 04:48:29;;;;;;;33.50;8.35;;;;;;;39.15;48.12;97600.72;5013396;28;20058;-70
2023/06/23 04:51:04;;;;;;;27.42;6.90;;;;;;;39.01;47.86;97607.94;4990982;28;20101;-70
2023/06/23 04:53:39;;;;;;;18.95;6.68;;;;;;;38.86;47.94;97598.16;4982514;28;20050;-70
2023/06/23 04:56:16;;;;;;;20.42;6.80;;;;;;;38.71;47.69;97606.94;5013668;28;20137;-69
2023/06/23 04:58:52;;;;;;;29.30;7.97;;;;;;;38.60;49.11;97605.00;5000717;28;20046;-70
2023/06/23 05:01:24;;;;;;;24.80;7.25;;;;;;;39.16;49.59;97613.38;5003243;28;20057;-70
2023/06/23 05:03:57;;;;;;;23.60;6.83;;;;;;;39.23;50.94;97602.22;5013055;28;20140;-70
2023/06/23 05:06:27;;;;;;;;;;;;;;;39.55;49.23;97600.00;4998452;28;20490;-70
2023/06/23 05:08:58;;;;;;;31.33;6.93;;;;;;;39.27;47.75;97606.53;4997857;28;19925;-70
2023/06/23 05:11:39;;;;;;;21.85;7.60;;;;;;;39.32;48.32;97602.56;4994497;28;20094;-71
2023/06/23 05:14:09;;;;;;;26.95;6.47;;;;;;;38.98;47.41;97597.69;4977333;28;20572;-67
2023/06/23 05:16:42;;;;;;;25.60;7.55;;;;;;;39.43;47.79;97608.81;4998099;28;20057;-67
2023/06/23 05:19:13;;;;;;;34.90;6.85;;;;;;;40.06;48.54;97606.59;5010040;28;20664;-68
2023/06/23 05:21:44;;;;;;;19.55;6.80;;;;;;;40.34;48.00;97611.84;4997372;28;20053;-68
2023/06/23 05:24:16;;;;;;;23.73;6.63;;;;;;;40.07;45.52;97613.72;5011595;28;20144;-68
2023/06/23 05:26:48;;;;;;;16.97;6.03;;;;;;;39.77;46.06;97612.47;5010535;28;20046;-67
2023/06/23 05:29:21;;;;;;;21.13;6.32;;;;;;;40.21;46.73;97611.59;5008315;28;20104;-67
2023/06/23 05:31:53;;;;;;;22.52;6.90;;;;;;;40.28;46.98;97607.94;4984159;28;20055;-68
2023/06/23 05:34:24;;;;;;;23.63;6.38;;;;;;;39.88;47.10;97612.34;5010916;28;20060;-67
2023/06/23 05:36:56;;;;;;;24.08;7.13;;;;;;;39.36;46.14;97609.66;5025511;28;20630;-67
2023/06/23 05:39:28;;;;;;;23.48;7.55;;;;;;;39.58;47.91;97609.47;4976107;28;20057;-67
2023/06/23 05:41:58;;;;;;;;;;;;;;;39.74;49.07;97607.75;4998766;28;20041;-67
2023/06/23 05:44:27;;;;;;;24.13;6.60;;;;;;;39.99;46.11;97609.47;4998357;28;20090;-67
2023/06/23 05:46:59;;;;;;;21.80;6.13;;;;;;;40.01;44.81;97604.31;4991229;28;20173;-67
2023/06/23 05:49:32;;;;;;;31.20;6.65;;;;;;;39.88;45.80;97607.59;4992036;28;20807;-67
2023/06/23 05:52:04;;;;;;;17.30;5.93;;;;;;;39.58;44.73;97609.47;5015534;28;20057;-69
2023/06/23 05:54:38;;;;;;;21.90;6.15;;;;;;;39.52;46.83;97598.81;5000428;28;20054;-67
2023/06/23 05:57:18;;;;;;;23.23;6.38;;;;;;;39.87;50.12;97597.72;5012792;28;20054;-67
2023/06/23 06:00:00;;;;;;;31.38;7.47;;;;;;;39.88;48.52;97607.59;4977224;28;20046;-66
2023/06/23 06:02:42;;;;;;;18.75;5.82;;;;;;;39.79;45.67;97609.31;5011913;28;20050;-67
2023/06/23 06:05:17;;;;;;;33.60;7.13;;;;;;;39.15;45.92;97603.47;5015183;28;20046;-68
2023/06/23 06:07:49;;;;;;;25.50;7.90;;;;;;;39.43;46.21;97606.06;4998211;28;20657;-66
2023/06/23 06:10:22;;;;;;;27.30;6.22;;;;;;;39.79;46.49;97610.06;5008023;28;20123;-67
2023/06/23 06:12:54;;;;;;;21.00;6.70;;;;;;;39.74;45.27;97605.00;5017763;28;20073;-67
2023/06/23 06:15:25;;;;;;;27.63;6.00;;;;;;;39.58;46.48;97603.91;4987511;28;20054;-68
2023/06/23 06:17:56;;;;;;;24.98;5.95;;;;;;;39.90;46.68;97601.63;4999512;28;20543;-67
2023/06/23 06:20:27;;;;;;;20.10;7.30;;;;;;;40.16;46.25;97598.16;5015626;28;20060;-67
2023/06/23 06:22:59;;;;;;;23.90;6.03;;;;;;;40.04;42.88;97603.47;5001498;28;20122;-69
2023/06/23 06:25:52;;;;;;;25.58;6.65;;;;;;;40.05;42.17;97600.28;5017567;28;20045;-67
2023/06/23 06:28:26;;;;;;;33.75;6.15;;;;;;;39.97;45.13;97598.00;4991112;28;20046;-69
2023/06/23 06:30:58;;;;;;;20.48;5.75;;;;;;;40.09;44.06;97608.56;5019665;28;20170;-67
2023/06/23 06:33:28;;;;;;;28.88;6.20;;;;;;;39.99;43.53;97596.38;5019338;28;20050;-66
2023/06/23 06:36:03;;;;;;;15.52;6.22;;;;;;;40.30;46.42;97592.47;5002771;28;20050;-67
2023/06/23 06:38:37;;;;;;;19.25;6.40;;;;;;;40.04;42.93;97593.16;5001285;28;20061;-67
2023/06/23 06:41:09;;;;;;;16.67;5.78;;;;;;;40.31;44.99;97596.03;5014830;28;20054;-67
2023/06/23 06:43:39;;;;;;;18.67;5.60;;;;;;;39.82;42.18;97589.84;4987198;28;20052;-67
2023/06/23 06:46:11;;;;;;;22.73;5.68;;;;;;;39.24;42.80;97596.28;4996000;28;20054;-67
2023/06/23 06:48:46;;;;;;;26.60;6.70;;;;;;;39.36;46.71;97600.56;4982857;28;20401;-67
2023/06/23 06:51:17;;;;;;;29.20;6.57;;;;;;;39.64;47.36;97591.97;5000369;28;20348;-67
2023/06/23 06:53:47;;;;;;;20.27;6.03;;;;;;;39.86;44.44;97587.03;5015976;28;20069;-68
2023/06/23 06:56:18;;;;;;;20.00;6.10;;;;;;;39.93;45.10;97587.72;5015282;28;20041;-67
2023/06/23 06:58:47;;;;;;;24.23;5.95;;;;;;;39.88;44.76;97590.16;4999854;28;20057;-67
2023/06/23 07:01:17;;;;;;;28.42;6.38;;;;;;;39.64;48.22;97580.91;5000376;28;20057;-67
2023/06/23 07:03:47;;;;;;;21.10;5.53;;;;;;;39.51;46.32;97574.28;5001164;28;20058;-67
2023/06/23 07:06:17;;;;;;;21.52;6.28;;;;;;;39.73;46.24;97577.63;5001144;28;20054;-67
2023/06/23 07:08:46;;;;;;;22.60;6.65;;;;;;;39.88;45.04;97576.28;5002593;28;20049;-67
2023/06/23 07:11:16;;;;;;;22.17;7.03;;;;;;;39.95;47.21;97570.69;5002615;28;20082;-67
2023/06/23 07:13:45;;;;;;;33.38;5.38;;;;;;;40.11;41.22;97564.53;5017431;28;20688;-68
2023/06/23 07:16:15;;;;;;;26.00;5.75;;;;;;;40.16;40.71;97561.28;5001021;28;20068;-67
2023/06/23 07:18:44;;;;;;;26.17;6.65;;;;;;;40.29;43.27;97562.34;5017419;28;20069;-67
2023/06/23 07:21:14;;;;;;;20.15;5.97;;;;;;;40.08;41.43;97560.59;5016147;28;21982;-67
2023/06/23 07:23:43;;;;;;;29.67;6.10;;;;;;;39.92;42.63;97558.41;5001988;28;20065;-68
2023/06/23 07:26:12;;;;;;;18.15;5.38;;;;;;;39.87;41.32;97556.13;5000588;28;20832;-66
2023/06/23 07:28:41;;;;;;;24.90;6.28;;;;;;;40.12;41.96;97561.34;4998512;28;20063;-67
2023/06/23 07:31:11;;;;;;;23.40;5.78;;;;;;;39.95;40.99;97562.34;5016744;28;20053;-67
2023/06/23 07:33:41;;;;;;;21.48;5.25;;;;;;;39.51;41.31;97552.91;4992265;28;20052;-67
2023/06/23 07:36:11;;;;;;;24.05;7.40;;;;;;;39.66;45.13;97553.53;5007412;28;20045;-67
2023/06/23 07:38:40;;;;;;;24.40;6.10;;;;;;;39.65;44.73;97540.09;5018870;28;21618;-67
2023/06/23 07:41:09;;;;;;;26.38;6.18;;;;;;;39.87;41.11;97539.47;5034042;28;20063;-67
2023/06/23 07:43:43;;;;;;;25.08;6.35;;;;;;;39.76;43.22;97543.56;5019560;28;20053;-66
2023/06/23 07:46:13;;;;;;;21.30;5.80;;;;;;;39.83;43.16;97533.16;5022924;28;20049;-67
2023/06/23 07:48:43;;;;;;;39.30;7.07;;;;;;;39.64;48.48;97536.53;5035920;28;20056;-67
2023/06/23 07:51:13;;;;;;;22.55;5.28;;;;;;;39.58;44.39;97535.41;5019458;28;20132;-66
2023/06/23 07:53:42;;;;;;;29.13;6.25;;;;;;;39.53;40.22;97533.06;5019803;28;20064;-67
2023/06/23 07:56:29;;;;;;;22.67;5.28;;;;;;;39.61;41.99;97525.50;5014235;28;20045;-66
2023/06/23 07:58:58;;;;;;;19.92;5.55;;;;;;;39.41;41.12;97520.53;5018875;28;20747;-66
2023/06/23 08:01:28;;;;;;;26.88;5.40;;;;;;;39.23;42.18;97533.75;5017800;28;20049;-66
2023/06/23 08:03:57;;;;;;;18.63;5.30;;;;;;;39.32;44.44;97523.00;5017672;28;20537;-66
2023/06/23 08:06:27;;;;;;;22.80;6.22;;;;;;;39.21;48.22;97515.97;5000735;28;20056;-67
2023/06/23 08:08:57;;;;;;;18.40;5.57;;;;;;;39.29;45.44;97509.94;5017231;28;20442;-67
2023/06/23 08:11:26;;;;;;;20.58;6.20;;;;;;;39.09;43.67;97504.19;5018415;28;20183;-67
2023/06/23 08:13:56;;;;;;;19.50;5.05;;;;;;;39.15;46.21;97503.75;5002820;28;20174;-68
2023/06/23 08:16:26;;;;;;;23.83;5.10;;;;;;;39.41;40.84;97505.88;4999694;28;20057;-67
2023/06/23 08:18:57;;;;;;;23.52;6.00;;;;;;;39.43;39.33;97503.50;5033114;28;20095;-69
2023/06/23 08:21:27;;;;;;;22.60;4.80;;;;;;;39.38;42.70;97503.94;5027913;28;20060;-68
2023/06/23 08:23:56;;;;;;;24.58;5.63;;;;;;;39.35;42.26;97508.31;5035542;28;20154;-68
2023/06/23 08:26:26;;;;;;;17.98;5.88;;;;;;;39.23;43.92;97500.50;5000933;28;20480;-68
2023/06/23 08:28:56;;;;;;;18.05;4.95;;;;;;;39.15;46.98;97495.44;5017993;28;20053;-68
2023/06/23 08:31:26;;;;;;;23.98;5.75;;;;;;;39.33;45.30;97493.31;5007708;28;20061;-70
2023/06/23 08:33:56;;;;;;;20.52;4.72;;;;;;;39.40;44.02;97482.13;4991950;28;20049;-67
2023/06/23 08:36:25;;;;;;;22.77;5.55;;;;;;;39.27;41.48;97473.53;5033006;28;20108;-67
2023/06/23 08:38:55;;;;;;;24.05;5.38;;;;;;;39.21;39.99;97480.75;5032430;28;20064;-67
2023/06/23 08:41:25;;;;;;;25.08;4.93;;;;;;;39.35;42.46;97471.50;5000957;28;20065;-67
2023/06/23 08:44:01;;;;;;;15.90;4.57;;;;;;;39.49;41.53;97468.56;5007853;28;20060;-67
2023/06/23 08:46:33;;;;;;;23.17;5.55;;;;;;;39.58;39.04;97460.56;5019332;28;20156;-69
2023/06/23 08:49:23;;;;;;;20.42;6.47;;;;;;;39.74;43.85;97452.47;5017435;28;20408;-67
2023/06/23 08:51:53;;;;;;;22.05;5.65;;;;;;;39.72;42.37;97449.28;5018278;28;20122;-67
2023/06/23 08:54:23;;;;;;;20.77;5.35;;;;;;;39.60;40.96;97447.06;5033330;28;20665;-68
2023/06/23 08:56:53;;;;;;;20.98;6.30;;;;;;;39.68;40.79;97436.69;5018281;28;20073;-68
2023/06/23 08:59:22;;;;;;;25.50;7.53;;;;;;;39.67;39.88;97435.88;5018056;28;20061;-67
2023/06/23 09:01:52;;;;;;;25.67;6.80;;;;;;;39.69;40.19;97429.94;5034404;28;20566;-67
2023/06/23 09:04:22;;;;;;;16.77;5.30;;;;;;;39.71;41.75;97428.31;5007142;28;20049;-67
2023/06/23 09:06:52;;;;;;;25.92;7.10;;;;;;;39.63;41.11;97431.59;5011956;28;20046;-68
2023/06/23 09:09:21;;;;;;;20.80;5.85;;;;;;;39.52;41.76;97429.72;4996893;28;20054;-66
2023/06/23 09:11:51;;;;;;;29.60;6.55;;;;;;;39.51;42.95;97421.84;5027732;28;20053;-67
2023/06/23 09:14:22;;;;;;;18.45;5.80;;;;;;;39.36;40.49;97414.88;5023599;28;20614;-66
2023/06/23 09:16:55;;;;;;;22.65;5.57;;;;;;;39.47;42.55;97410.00;5037501;28;20439;-68
2023/06/23 09:19:25;;;;;;;;;;;;;;;39.43;41.74;97409.28;5037548;28;20053;-68
2023/06/23 09:21:56;;;;;;;25.75;7.03;;;;;;;39.50;41.46;97400.88;5023399;28;19929;-68
2023/06/23 09:24:43;;;;;;;20.30;7.03;;;;;;;39.49;42.31;97390.97;5005208;28;20103;-66
2023/06/23 09:27:15;;;;;;;20.77;5.90;;;;;;;39.40;42.51;97388.69;5023491;28;20114;-67
2023/06/23 09:30:00;;;;;;;21.23;5.15;;;;;;;39.29;43.92;97390.00;5039162;28;20045;-67
2023/06/23 09:32:30;;;;;;;21.10;6.28;;;;;;;39.32;43.43;97391.97;5020996;28;20650;-67
2023/06/23 09:34:59;;;;;;;16.48;6.20;;;;;;;39.32;44.57;97387.22;5022155;28;20057;-67
2023/06/23 09:37:37;;;;;;;24.33;7.85;;;;;;;39.23;42.25;97378.59;5023617;28;20058;-65
2023/06/23 09:40:09;;;;;;;22.63;5.63;;;;;;;39.22;44.11;97371.47;5006591;28;20060;-68
2023/06/23 09:42:44;;;;;;;25.02;6.30;;;;;;;39.09;44.22;97368.47;5037577;28;20049;-68
2023/06/23 09:45:17;;;;;;;22.33;7.78;;;;;;;39.12;43.58;97360.53;5021289;28;20080;-67
2023/06/23 09:47:49;;;;;;;23.13;5.93;;;;;;;39.11;43.30;97359.75;5021305;28;20054;-67
2023/06/23 09:50:22;;;;;;;15.70;7.10;;;;;;;39.14;43.14;97350.59;5020849;28;20059;-67
2023/06/23 09:53:04;;;;;;;19.08;5.78;;;;;;;39.06;41.63;97354.66;5021885;28;20045;-67
2023/06/23 09:55:33;;;;;;;22.00;5.55;;;;;;;39.18;41.31;97351.34;5035257;28;20057;-67
2023/06/23 09:58:08;;;;;;;28.20;5.90;;;;;;;39.00;39.69;97351.53;5021601;28;20049;-68
2023/06/23 10:00:37;;;;;;;27.13;6.13;;;;;;;39.00;40.87;97340.47;5024446;28;20049;-67
2023/06/23 10:03:07;;;;;;;18.55;6.05;;;;;;;39.08;42.23;97341.19;5021672;28;20716;-68
2023/06/23 10:05:37;;;;;;;18.90;6.03;;;;;;;39.11;43.50;97340.34;5002581;28;20069;-67
2023/06/23 10:08:13;;;;;;;28.02;6.20;;;;;;;39.16;42.21;97339.91;5011610;28;20057;-66
2023/06/23 10:10:44;;;;;;;17.83;5.15;;;;;;;39.23;41.01;97334.25;4998568;28;20129;-68
2023/06/23 10:13:14;;;;;;;31.13;8.07;;;;;;;39.13;41.88;97329.63;4997188;28;20048;-67
2023/06/23 10:15:45;;;;;;;14.30;4.80;;;;;;;39.10;41.97;97330.47;4672513;28;10000188;-66
2023/06/23 10:18:15;;;;;;;19.95;6.22;;;;;;;39.16;42.49;97320.50;5011533;28;20057;-66
2023/06/23 10:20:47;;;;;;;21.52;5.75;;;;;;;39.21;41.07;97317.28;5018807;28;20049;-65
2023/06/23 10:23:18;;;;;;;18.17;6.22;;;;;;;39.20;41.91;97314.91;5019983;28;20052;-66
2023/06/23 10:25:54;;;;;;;24.60;7.03;;;;;;;39.17;41.94;97307.44;5021006;28;20084;-67
2023/06/23 10:28:24;;;;;;;24.08;7.68;;;;;;;39.09;43.04;97313.06;5018567;28;20048;-67
2023/06/23 10:30:54;;;;;;;20.75;7.53;;;;;;;39.05;42.29;97306.00;5027146;28;20056;-67
2023/06/23 10:33:26;;;;;;;25.08;7.30;;;;;;;38.97;43.73;97294.22;5019662;28;20049;-67
2023/06/23 10:35:59;;;;;;;36.00;8.57;;;;;;;38.99;43.42;97300.13;5021930;28;20048;-68
2023/06/23 10:38:31;;;;;;;24.27;7.18;;;;;;;39.03;43.05;97306.44;5035859;28;20725;-68
2023/06/23 10:41:01;;;;;;;24.33;7.63;;;;;;;39.02;43.27;97298.53;5003050;28;20045;-67
2023/06/23 10:43:39;;;;;;;28.50;7.30;;;;;;;39.03;43.83;97302.88;5035930;28;20424;-68
2023/06/23 10:46:10;;;;;;;27.42;7.78;;;;;;;38.91;42.68;97287.56;5020095;28;20049;-66
2023/06/23 10:48:42;;;;;;;26.27;7.40;;;;;;;38.94;43.80;97283.19;5023919;28;20049;-67
2023/06/23 10:51:13;;;;;;;23.65;6.38;;;;;;;38.95;42.51;97277.22;5019717;28;20064;-67
2023/06/23 10:53:58;;;;;;;31.60;8.30;;;;;;;38.92;42.13;97277.28;5002893;28;20063;-67
2023/06/23 10:56:52;;;;;;;22.40;7.70;;;;;;;38.89;42.88;97270.59;5011481;28;20064;-68
2023/06/23 10:59:30;;;;;;;24.05;6.93;;;;;;;38.88;42.39;97277.31;5019426;28;20080;-67
2023/06/23 11:02:00;;;;;;;21.38;7.05;;;;;;;38.88;41.60;97280.09;5035345;28;20041;-66
2023/06/23 11:04:37;;;;;;;28.02;6.68;;;;;;;38.82;42.01;97265.09;5019440;28;20050;-70
2023/06/23 11:07:12;;;;;;;21.50;6.35;;;;;;;38.80;43.01;97273.03;5033519;28;20061;-70
2023/06/23 11:09:52;;;;;;;24.42;6.45;;;;;;;38.81;43.63;97274.63;5001399;28;20060;-69
2023/06/23 11:12:38;;;;;;;25.73;7.03;;;;;;;38.74;40.83;97273.88;5012164;28;20132;-68
2023/06/23 11:15:16;;;;;;;22.00;6.70;;;;;;;38.70;41.08;97273.16;5036245;28;20132;-71
2023/06/23 11:18:02;;;;;;;22.48;6.10;;;;;;;38.78;41.58;97269.09;5007407;28;20372;-66
2023/06/23 11:20:37;;;;;;;15.52;6.07;;;;;;;38.73;41.53;97261.28;5034585;28;20520;-66
2023/06/23 11:23:09;;;;;;;17.63;5.75;;;;;;;38.64;40.51;97261.72;5018420;28;20127;-67
2023/06/23 11:25:42;;;;;;;15.93;5.90;;;;;;;38.57;41.14;97259.84;5032911;28;20134;-68
2023/06/23 11:28:38;;;;;;;20.63;6.68;;;;;;;38.51;40.49;97260.69;5007702;28;20060;-70
2023/06/23 11:31:13;;;;;;;23.52;6.10;;;;;;;38.46;40.27;97259.16;4998813;28;20168;-71
2023/06/23 11:33:59;;;;;;;22.90;5.43;;;;;;;38.41;40.15;97254.06;4988867;28;20697;-69
2023/06/23 11:36:31;;;;;;;21.55;5.75;;;;;;;38.39;40.78;97252.91;5019802;28;20077;-69
2023/06/23 11:39:01;;;;;;;21.02;6.05;;;;;;;38.42;39.24;97249.28;5000867;28;20060;-68
2023/06/23 11:41:31;;;;;;;19.40;5.72;;;;;;;38.44;39.43;97246.94;5035073;28;20140;-72
2023/06/23 11:44:03;;;;;;;16.05;5.40;;;;;;;38.38;40.33;97234.72;5035198;28;20555;-69
2023/06/23 11:46:34;;;;;;;22.30;6.20;;;;;;;38.41;40.28;97229.16;5034810;28;20664;-70
2023/06/23 11:49:11;;;;;;;23.35;5.35;;;;;;;38.51;40.33;97228.28;5034187;28;20046;-67
2023/06/23 11:51:41;;;;;;;17.80;5.47;;;;;;;38.46;41.39;97225.19;5020252;28;20049;-69